createdAt,value
2023-05-13T00:02:02.706Z,13.90
2023-05-13T00:04:29.596Z,15.00
2023-05-13T00:06:56.886Z,12.68
2023-05-13T00:09:23.833Z,16.63
2023-05-13T00:11:51.048Z,12.13
2023-05-13T00:14:17.999Z,11.30
2023-05-13T00:16:45.239Z,12.93
2023-05-13T00:19:12.402Z,13.23
2023-05-13T00:21:39.798Z,13.20
2023-05-13T00:24:07.047Z,13.90
2023-05-13T00:26:34.565Z,16.63
2023-05-13T00:29:01.495Z,16.00
2023-05-13T00:31:28.944Z,15.90
2023-05-13T00:33:55.923Z,12.87
2023-05-13T00:36:23.278Z,15.50
2023-05-13T00:38:50.262Z,13.00
2023-05-13T00:41:17.716Z,12.80
2023-05-13T00:43:44.835Z,12.93
2023-05-13T00:46:12.279Z,14.53
2023-05-13T00:48:39.282Z,13.57
2023-05-13T00:51:07.368Z,14.07
2023-05-13T00:53:34.268Z,17.40
2023-05-13T00:56:01.557Z,16.70
2023-05-13T00:58:28.845Z,15.17
2023-05-13T01:01:37.937Z,12.95
2023-05-13T01:04:26.437Z,16.83
2023-05-13T01:07:09.500Z,17.55
2023-05-13T01:09:53.488Z,13.25
2023-05-13T01:12:31.266Z,15.73
2023-05-13T01:15:07.355Z,13.40
2023-05-13T01:17:51.914Z,13.02
2023-05-13T01:20:23.184Z,16.00
2023-05-13T01:22:50.863Z,14.32
2023-05-13T01:25:17.981Z,15.07
2023-05-13T01:27:46.104Z,14.32
2023-05-13T01:30:15.702Z,14.93
2023-05-13T01:32:43.975Z,14.10
2023-05-13T01:35:11.901Z,15.68
2023-05-13T01:37:44.137Z,14.73
2023-05-13T01:40:24.230Z,13.80
2023-05-13T01:42:59.328Z,17.17
2023-05-13T01:45:29.412Z,14.93
2023-05-13T01:47:57.245Z,16.02
2023-05-13T01:50:26.467Z,15.27
2023-05-13T01:52:53.832Z,12.88
2023-05-13T01:55:20.783Z,15.88
2023-05-13T01:57:49.613Z,12.13
2023-05-13T02:00:16.951Z,12.40
2023-05-13T02:02:44.761Z,17.67
2023-05-13T02:05:11.861Z,16.02
2023-05-13T02:07:39.217Z,14.02
2023-05-13T02:10:06.446Z,14.27
2023-05-13T02:12:33.808Z,12.32
2023-05-13T02:15:01.424Z,11.80
2023-05-13T02:17:31.178Z,13.40
2023-05-13T02:19:58.726Z,11.07
2023-05-13T02:22:26.212Z,13.63
2023-05-13T02:24:53.494Z,11.95
2023-05-13T02:27:21.159Z,12.97
2023-05-13T02:29:48.365Z,14.15
2023-05-13T02:32:15.943Z,14.48
2023-05-13T02:34:43.227Z,12.60
2023-05-13T02:37:10.480Z,13.65
2023-05-13T02:39:45.533Z,13.20
2023-05-13T02:42:13.222Z,13.02
2023-05-13T02:44:40.663Z,13.30
2023-05-13T02:47:09.140Z,13.57
2023-05-13T02:49:36.101Z,13.70
2023-05-13T02:52:03.397Z,12.83
2023-05-13T02:54:34.296Z,15.13
2023-05-13T02:57:01.960Z,13.77
2023-05-13T02:59:28.830Z,12.95
2023-05-13T03:01:57.490Z,14.68
2023-05-13T03:04:25.420Z,13.93
2023-05-13T03:06:53.327Z,14.63
2023-05-13T03:09:20.206Z,15.55
2023-05-13T03:11:47.496Z,14.68
2023-05-13T03:14:14.655Z,15.23
2023-05-13T03:16:41.947Z,13.33
2023-05-13T03:19:08.959Z,13.25
2023-05-13T03:21:36.511Z,16.98
2023-05-13T03:24:04.194Z,15.63
2023-05-13T03:26:31.596Z,13.90
2023-05-13T03:28:58.678Z,13.30
2023-05-13T03:31:26.251Z,13.32
2023-05-13T03:33:53.633Z,14.43
2023-05-13T03:36:21.134Z,13.80
2023-05-13T03:38:48.372Z,13.80
2023-05-13T03:41:17.674Z,14.43
2023-05-13T03:43:46.568Z,15.15
2023-05-13T03:46:14.831Z,16.98
2023-05-13T03:48:42.446Z,17.25
2023-05-13T03:51:10.133Z,15.52
2023-05-13T03:53:37.593Z,15.17
2023-05-13T03:56:05.532Z,12.48
2023-05-13T03:58:32.467Z,11.80
2023-05-13T04:00:59.926Z,12.10
2023-05-13T04:03:27.327Z,12.80
2023-05-13T04:05:54.587Z,18.53
2023-05-13T04:08:21.558Z,13.57
2023-05-13T04:10:49.771Z,12.73
2023-05-13T04:13:16.669Z,11.93
2023-05-13T04:15:43.963Z,13.15
2023-05-13T04:18:11.220Z,14.77
2023-05-13T04:20:39.750Z,12.40
2023-05-13T04:23:07.501Z,12.00
2023-05-13T04:25:35.640Z,13.23
2023-05-13T04:28:02.618Z,12.07
2023-05-13T04:30:35.408Z,17.17
2023-05-13T04:33:03.102Z,13.98
2023-05-13T04:35:31.109Z,13.10
2023-05-13T04:38:00.627Z,13.90
2023-05-13T04:40:29.641Z,17.48
2023-05-13T04:43:00.100Z,15.50
2023-05-13T04:45:32.386Z,17.52
2023-05-13T04:48:00.257Z,15.45
2023-05-13T04:50:27.585Z,12.57
2023-05-13T04:52:56.668Z,17.20
2023-05-13T04:55:26.759Z,15.27
2023-05-13T04:57:55.220Z,19.52
2023-05-13T05:00:22.954Z,19.27
2023-05-13T05:02:51.484Z,14.23
2023-05-13T05:05:19.193Z,13.95
2023-05-13T05:07:46.821Z,19.37
2023-05-13T05:10:15.719Z,16.88
2023-05-13T05:12:48.526Z,15.63
2023-05-13T05:15:16.085Z,15.88
2023-05-13T05:17:45.676Z,16.45
2023-05-13T05:20:13.760Z,14.87
2023-05-13T05:22:42.366Z,12.57
2023-05-13T05:25:11.846Z,12.50
2023-05-13T05:27:39.025Z,14.30
2023-05-13T05:30:07.325Z,12.13
2023-05-13T05:32:36.002Z,11.33
2023-05-13T05:35:05.007Z,10.95
2023-05-13T05:37:33.526Z,12.23
2023-05-13T05:40:01.051Z,10.35
2023-05-13T05:42:28.431Z,13.43
2023-05-13T05:44:55.836Z,11.33
2023-05-13T05:47:23.536Z,12.07
2023-05-13T05:49:50.857Z,11.50
2023-05-13T05:52:18.816Z,14.25
2023-05-13T05:54:46.269Z,13.38
2023-05-13T05:57:13.240Z,14.67
2023-05-13T05:59:40.626Z,10.88
2023-05-13T06:02:07.828Z,12.25
2023-05-13T06:04:36.004Z,12.13
2023-05-13T06:07:02.942Z,10.45
2023-05-13T06:09:30.590Z,9.43
2023-05-13T06:11:57.630Z,11.00
2023-05-13T06:14:24.874Z,10.52
2023-05-13T06:16:53.550Z,8.63
2023-05-13T06:19:21.710Z,11.30
2023-05-13T06:21:48.930Z,9.63
2023-05-13T06:24:16.206Z,11.57
2023-05-13T06:26:44.414Z,9.80
2023-05-13T06:29:14.793Z,10.38
2023-05-13T06:31:41.866Z,11.10
2023-05-13T06:34:10.782Z,11.00
2023-05-13T06:36:37.749Z,11.57
2023-05-13T06:39:07.779Z,10.73
2023-05-13T06:41:36.610Z,10.02
2023-05-13T06:44:09.669Z,10.90
2023-05-13T06:46:39.900Z,9.83
2023-05-13T06:49:07.407Z,9.65
2023-05-13T06:51:35.098Z,10.20
2023-05-13T06:54:02.318Z,10.43
2023-05-13T06:56:30.402Z,10.60
2023-05-13T06:58:57.721Z,8.90
2023-05-13T07:01:25.098Z,10.80
2023-05-13T07:03:52.384Z,10.30
2023-05-13T07:06:19.586Z,10.48
2023-05-13T07:08:46.853Z,10.95
2023-05-13T07:11:13.800Z,10.35
2023-05-13T07:13:41.202Z,11.13
2023-05-13T07:16:08.208Z,9.82
2023-05-13T07:18:35.648Z,9.90
2023-05-13T07:21:02.741Z,10.07
2023-05-13T07:23:30.275Z,9.45
2023-05-13T07:25:57.299Z,12.07
2023-05-13T07:28:24.579Z,10.60
2023-05-13T07:30:53.665Z,8.93
2023-05-13T07:33:21.104Z,9.02
2023-05-13T07:35:48.127Z,8.25
2023-05-13T07:38:15.975Z,11.57
2023-05-13T07:40:42.940Z,10.43
2023-05-13T07:43:10.305Z,8.65
2023-05-13T07:45:39.386Z,10.15
2023-05-13T07:48:06.832Z,9.68
2023-05-13T07:50:33.822Z,13.63
2023-05-13T07:53:01.110Z,9.32
2023-05-13T07:55:28.031Z,11.60
2023-05-13T07:57:55.272Z,10.07
2023-05-13T08:00:22.287Z,9.50
2023-05-13T08:02:49.554Z,10.07
2023-05-13T08:05:16.994Z,10.63
2023-05-13T08:07:44.207Z,8.43
2023-05-13T08:10:11.205Z,8.85
2023-05-13T08:12:40.535Z,8.15
2023-05-13T08:15:08.012Z,9.50
2023-05-13T08:17:35.334Z,10.02
2023-05-13T08:20:03.732Z,9.43
2023-05-13T08:22:31.265Z,9.38
2023-05-13T08:25:01.161Z,8.77
2023-05-13T08:27:28.539Z,7.90
2023-05-13T08:29:55.479Z,8.73
2023-05-13T08:32:23.180Z,8.88
2023-05-13T08:34:50.417Z,8.77
2023-05-13T08:37:17.657Z,7.30
2023-05-13T08:39:44.546Z,12.97
2023-05-13T08:42:12.470Z,9.98
2023-05-13T08:44:43.838Z,10.15
2023-05-13T08:47:21.555Z,8.90
2023-05-13T08:49:48.599Z,8.40
2023-05-13T08:52:15.938Z,9.10
2023-05-13T08:54:43.790Z,8.35
2023-05-13T08:57:11.031Z,9.68
2023-05-13T08:59:37.926Z,9.82
2023-05-13T09:02:05.580Z,10.05
2023-05-13T09:04:37.799Z,15.33
2023-05-13T09:07:05.851Z,9.43
2023-05-13T09:09:33.139Z,11.60
2023-05-13T09:12:00.395Z,10.38
2023-05-13T09:14:32.720Z,10.43
2023-05-13T09:17:01.632Z,11.10
2023-05-13T09:19:29.079Z,9.20
2023-05-13T09:21:57.759Z,9.38
2023-05-13T09:24:24.738Z,10.43
2023-05-13T09:26:52.191Z,11.68
2023-05-13T09:29:19.124Z,9.00
2023-05-13T09:31:55.218Z,10.38
2023-05-13T09:34:30.929Z,10.10
2023-05-13T09:37:08.615Z,10.15
2023-05-13T09:39:41.694Z,10.27
2023-05-13T09:42:19.691Z,9.10
2023-05-13T09:44:46.958Z,11.52
2023-05-13T09:47:16.029Z,10.32
2023-05-13T09:49:44.859Z,7.93
2023-05-13T09:52:12.494Z,14.27
2023-05-13T09:54:39.526Z,8.60
2023-05-13T09:57:07.122Z,10.38
2023-05-13T09:59:35.143Z,11.32
2023-05-13T10:02:07.076Z,14.93
2023-05-13T10:04:34.642Z,9.43
2023-05-13T10:07:03.979Z,9.17
2023-05-13T10:09:35.571Z,8.55
2023-05-13T10:12:04.130Z,8.25
2023-05-13T10:14:31.548Z,9.18
2023-05-13T10:16:59.899Z,10.25
2023-05-13T10:19:27.368Z,8.87
2023-05-13T10:21:54.842Z,12.23
2023-05-13T10:24:22.417Z,10.93
2023-05-13T10:26:52.832Z,9.23
2023-05-13T10:29:20.836Z,11.30
2023-05-13T10:31:48.638Z,10.63
2023-05-13T10:34:16.284Z,10.20
2023-05-13T10:37:04.411Z,8.90
2023-05-13T10:39:53.537Z,8.68
2023-05-13T10:42:50.215Z,9.10
2023-05-13T10:45:17.292Z,11.27
2023-05-13T10:47:44.741Z,10.27
2023-05-13T10:50:25.573Z,9.95
2023-05-13T10:53:00.072Z,11.60
2023-05-13T10:55:27.708Z,13.32
2023-05-13T10:58:12.453Z,11.30
2023-05-13T11:00:41.392Z,12.13
2023-05-13T11:03:09.467Z,10.20
2023-05-13T11:05:40.237Z,11.02
2023-05-13T11:08:07.533Z,15.13
2023-05-13T11:10:34.581Z,14.37
2023-05-13T11:13:22.993Z,15.98
2023-05-13T11:15:54.631Z,15.35
2023-05-13T11:18:30.396Z,14.35
2023-05-13T11:21:05.228Z,17.23
2023-05-13T11:23:38.246Z,14.63
2023-05-13T11:26:17.407Z,13.68
2023-05-13T11:28:58.847Z,14.85
2023-05-13T11:31:27.923Z,13.88
2023-05-13T11:34:17.380Z,13.27
2023-05-13T11:36:46.926Z,13.57
2023-05-13T11:39:16.486Z,15.15
2023-05-13T11:41:45.998Z,13.68
2023-05-13T11:44:15.977Z,12.35
2023-05-13T11:46:56.985Z,12.75
2023-05-13T11:49:34.302Z,10.93
2023-05-13T11:52:03.159Z,11.48
2023-05-13T11:54:30.619Z,11.85
2023-05-13T11:56:57.713Z,13.48
2023-05-13T11:59:25.362Z,12.98
2023-05-13T12:02:00.752Z,14.30
2023-05-13T12:04:29.886Z,16.48
2023-05-13T12:06:57.809Z,16.05
2023-05-13T12:09:25.729Z,14.20
2023-05-13T12:11:53.174Z,14.00
2023-05-13T12:14:21.117Z,14.20
2023-05-13T12:16:48.728Z,13.77
2023-05-13T12:19:16.088Z,13.55
2023-05-13T12:21:43.105Z,13.32
2023-05-13T12:24:23.095Z,12.73
2023-05-13T12:26:50.453Z,12.03
2023-05-13T12:29:17.754Z,13.88
2023-05-13T12:32:05.751Z,14.38
2023-05-13T12:34:34.602Z,13.20
2023-05-13T12:37:12.673Z,11.73
2023-05-13T12:39:41.665Z,11.67
2023-05-13T12:42:16.272Z,13.38
2023-05-13T12:44:44.932Z,11.00
2023-05-13T12:47:14.084Z,14.00
2023-05-13T12:49:54.692Z,12.23
2023-05-13T12:52:22.209Z,13.43
2023-05-13T12:54:49.471Z,16.95
2023-05-13T12:57:20.676Z,14.18
2023-05-13T12:59:47.955Z,13.57
2023-05-13T13:02:14.854Z,14.20
2023-05-13T13:04:42.150Z,12.20
2023-05-13T13:07:12.790Z,15.32
2023-05-13T13:09:40.350Z,15.80
2023-05-13T13:12:07.517Z,12.73
2023-05-13T13:14:34.722Z,15.65
2023-05-13T13:17:01.663Z,13.60
2023-05-13T13:19:29.228Z,16.25
2023-05-13T13:21:56.361Z,15.82
2023-05-13T13:24:23.657Z,18.63
2023-05-13T13:26:50.811Z,17.35
2023-05-13T13:29:18.096Z,15.67
2023-05-13T13:31:45.998Z,15.27
2023-05-13T13:34:13.786Z,15.15
2023-05-13T13:36:41.113Z,16.83
2023-05-13T13:39:08.402Z,16.73
2023-05-13T13:41:35.320Z,14.23
2023-05-13T13:44:02.823Z,14.93
2023-05-13T13:46:29.904Z,18.38
2023-05-13T13:48:57.157Z,16.73
2023-05-13T13:51:24.160Z,16.20
2023-05-13T13:53:51.598Z,16.77
2023-05-13T13:56:18.628Z,14.75
2023-05-13T13:58:45.921Z,16.33
2023-05-13T14:01:12.943Z,17.95
2023-05-13T14:03:40.277Z,14.80
2023-05-13T14:06:07.994Z,14.33
2023-05-13T14:08:36.794Z,13.82
2023-05-13T14:11:03.848Z,14.50
2023-05-13T14:13:31.117Z,12.48
2023-05-13T14:15:58.093Z,15.55
2023-05-13T14:18:25.452Z,13.90
2023-05-13T14:20:52.381Z,13.18
2023-05-13T14:23:19.749Z,17.20
2023-05-13T14:25:46.780Z,14.07
2023-05-13T14:28:15.636Z,14.23
2023-05-13T14:30:42.828Z,13.87
2023-05-13T14:33:10.165Z,17.23
2023-05-13T14:35:37.133Z,16.27
2023-05-13T14:38:04.342Z,15.95
2023-05-13T14:40:31.533Z,14.07
2023-05-13T14:42:58.783Z,14.57
2023-05-13T14:45:25.762Z,16.77
2023-05-13T14:47:54.160Z,13.32
2023-05-13T14:50:21.610Z,12.48
2023-05-13T14:52:49.007Z,13.57
2023-05-13T14:55:16.046Z,13.50
2023-05-13T14:57:43.592Z,15.80
2023-05-13T15:00:11.320Z,12.88
2023-05-13T15:02:38.778Z,16.65
2023-05-13T15:05:06.436Z,13.20
2023-05-13T15:07:33.817Z,13.30
2023-05-13T15:10:00.732Z,14.15
2023-05-13T15:12:28.028Z,14.55
2023-05-13T15:14:56.196Z,13.27
2023-05-13T15:17:23.518Z,14.48
2023-05-13T15:19:50.637Z,14.07
2023-05-13T15:22:18.629Z,13.40
2023-05-13T15:24:45.674Z,12.90
2023-05-13T15:27:13.034Z,13.25
2023-05-13T15:29:39.992Z,14.25
2023-05-13T15:32:07.582Z,14.80
2023-05-13T15:34:34.725Z,15.70
2023-05-13T15:37:01.979Z,12.25
2023-05-13T15:39:28.889Z,12.30
2023-05-13T15:41:56.448Z,12.30
2023-05-13T15:44:23.700Z,15.33
2023-05-13T15:46:50.794Z,13.52
2023-05-13T15:49:18.166Z,13.88
2023-05-13T15:51:45.187Z,14.13
2023-05-13T15:54:12.347Z,17.10
2023-05-13T15:56:39.274Z,13.77
2023-05-13T15:59:06.481Z,13.82
2023-05-13T16:01:33.404Z,17.73
2023-05-13T16:04:00.687Z,15.43
2023-05-13T16:06:27.554Z,16.63
2023-05-13T16:08:56.423Z,14.20
2023-05-13T16:11:23.705Z,15.77
2023-05-13T16:13:50.917Z,14.60
2023-05-13T16:16:17.882Z,15.60
2023-05-13T16:18:45.191Z,16.95
2023-05-13T16:21:12.148Z,13.73
2023-05-13T16:23:39.801Z,15.00
2023-05-13T16:26:06.825Z,14.50
2023-05-13T16:28:34.060Z,13.07
2023-05-13T16:31:00.977Z,12.88
2023-05-13T16:33:28.392Z,12.87
2023-05-13T16:35:55.310Z,12.27
2023-05-13T16:38:22.557Z,11.85
2023-05-13T16:40:49.515Z,12.27
2023-05-13T16:43:16.797Z,10.40
2023-05-13T16:45:44.105Z,11.17
2023-05-13T16:48:11.694Z,14.20
2023-05-13T16:50:38.662Z,12.93
2023-05-13T16:53:05.939Z,12.73
2023-05-13T16:55:33.033Z,13.38
2023-05-13T16:58:01.690Z,10.83
2023-05-13T17:00:28.700Z,13.57
2023-05-13T17:02:56.168Z,12.55
2023-05-13T17:05:23.237Z,12.35
2023-05-13T17:07:50.564Z,12.00
2023-05-13T17:10:17.549Z,10.80
2023-05-13T17:12:44.861Z,11.48
2023-05-13T17:15:11.910Z,10.52
2023-05-13T17:17:39.326Z,12.02
2023-05-13T17:20:06.869Z,10.00
2023-05-13T17:22:34.215Z,11.10
2023-05-13T17:25:01.547Z,12.63
2023-05-13T17:27:28.787Z,11.15
2023-05-13T17:29:56.100Z,12.27
2023-05-13T17:32:23.365Z,12.25
2023-05-13T17:34:50.300Z,11.52
2023-05-13T17:37:17.623Z,12.57
2023-05-13T17:39:44.512Z,13.43
2023-05-13T17:42:11.748Z,13.02
2023-05-13T17:44:38.649Z,11.68
2023-05-13T17:47:05.989Z,16.13
2023-05-13T17:49:32.889Z,12.70
2023-05-13T17:52:00.113Z,12.23
2023-05-13T17:54:27.000Z,13.85
2023-05-13T17:56:54.311Z,11.05
2023-05-13T17:59:21.214Z,11.75
2023-05-13T18:01:48.545Z,12.40
2023-05-13T18:04:16.270Z,12.80
2023-05-13T18:06:43.600Z,11.10
2023-05-13T18:09:10.559Z,13.10
2023-05-13T18:11:38.199Z,10.07
2023-05-13T18:14:05.164Z,10.23
2023-05-13T18:16:32.463Z,10.85
2023-05-13T18:18:59.771Z,9.75
2023-05-13T18:21:28.992Z,11.73
2023-05-13T18:23:57.424Z,12.05
2023-05-13T18:26:24.764Z,9.73
2023-05-13T18:28:51.911Z,9.13
2023-05-13T18:31:19.195Z,8.77
2023-05-13T18:33:46.365Z,9.70
2023-05-13T18:36:13.646Z,9.70
2023-05-13T18:38:41.059Z,8.77
2023-05-13T18:41:08.520Z,9.67
2023-05-13T18:43:35.477Z,10.10
2023-05-13T18:46:02.832Z,9.93
2023-05-13T18:48:29.769Z,12.55
2023-05-13T18:50:57.005Z,9.73
2023-05-13T18:53:24.054Z,10.60
2023-05-13T18:55:51.426Z,9.40
2023-05-13T18:58:18.566Z,11.68
2023-05-13T19:00:46.099Z,11.27
2023-05-13T19:03:13.523Z,11.57
2023-05-13T19:05:41.459Z,13.50
2023-05-13T19:08:08.418Z,11.60
2023-05-13T19:10:39.961Z,14.02
2023-05-13T19:13:07.775Z,13.07
2023-05-13T19:15:35.853Z,12.15
2023-05-13T19:18:02.990Z,13.07
2023-05-13T19:20:30.789Z,13.05
2023-05-13T19:22:57.735Z,12.95
2023-05-13T19:25:24.986Z,11.45
2023-05-13T19:27:52.048Z,12.57
2023-05-13T19:30:19.370Z,9.73
2023-05-13T19:32:46.399Z,10.30
2023-05-13T19:35:13.725Z,12.00
2023-05-13T19:37:41.160Z,14.38
2023-05-13T19:40:09.045Z,12.73
2023-05-13T19:42:36.100Z,12.70
2023-05-13T19:45:06.420Z,12.98
2023-05-13T19:47:34.432Z,12.85
2023-05-13T19:50:02.366Z,14.77
2023-05-13T19:52:29.400Z,14.40
2023-05-13T19:54:56.882Z,12.47
2023-05-13T19:57:23.793Z,13.98
2023-05-13T19:59:51.170Z,13.27
2023-05-13T20:02:18.155Z,14.68
2023-05-13T20:04:45.550Z,14.50
2023-05-13T20:07:12.582Z,12.73
2023-05-13T20:09:39.821Z,14.10
2023-05-13T20:12:07.947Z,13.90
2023-05-13T20:14:44.140Z,16.15
2023-05-13T20:17:19.048Z,16.80
2023-05-13T20:19:50.057Z,12.60
2023-05-13T20:22:18.796Z,16.10
2023-05-13T20:24:48.044Z,15.55
2023-05-13T20:27:16.205Z,19.15
2023-05-13T20:29:48.079Z,20.52
2023-05-13T20:32:18.603Z,16.57
2023-05-13T20:34:45.879Z,19.85
2023-05-13T20:37:12.996Z,18.73
2023-05-13T20:39:40.496Z,18.77
2023-05-13T20:42:07.919Z,15.02
2023-05-13T20:44:35.315Z,14.93
2023-05-13T20:47:02.309Z,14.68
2023-05-13T20:49:29.753Z,13.27
2023-05-13T20:52:02.003Z,16.15
2023-05-13T20:54:29.479Z,15.68
2023-05-13T20:56:56.489Z,16.07
2023-05-13T20:59:23.725Z,18.58
2023-05-13T21:01:50.874Z,17.13
2023-05-13T21:04:18.197Z,18.92
2023-05-13T21:06:45.594Z,17.13
2023-05-13T21:09:12.990Z,14.27
2023-05-13T21:11:40.036Z,17.48
2023-05-13T21:14:07.362Z,18.45
2023-05-13T21:16:36.129Z,18.85
2023-05-13T21:19:03.398Z,16.52
2023-05-13T21:21:30.374Z,15.93
2023-05-13T21:23:57.631Z,13.10
2023-05-13T21:26:25.405Z,12.98
2023-05-13T21:28:52.697Z,13.50
2023-05-13T21:31:19.738Z,11.70
2023-05-13T21:33:49.118Z,14.93
2023-05-13T21:36:16.361Z,14.27
2023-05-13T21:38:43.657Z,12.40
2023-05-13T21:41:10.619Z,11.98
2023-05-13T21:43:37.882Z,12.65
2023-05-13T21:46:06.991Z,12.33
2023-05-13T21:48:34.279Z,17.85
2023-05-13T21:51:01.168Z,15.63
2023-05-13T21:53:28.927Z,19.23
2023-05-13T21:56:00.382Z,14.25
2023-05-13T21:58:27.860Z,11.27
2023-05-13T22:00:54.844Z,13.05
2023-05-13T22:03:22.282Z,11.40
2023-05-13T22:05:49.324Z,10.30
2023-05-13T22:08:16.768Z,10.27
2023-05-13T22:10:43.825Z,11.03
2023-05-13T22:13:11.193Z,11.25
2023-05-13T22:15:38.323Z,16.05
2023-05-13T22:18:05.785Z,17.05
2023-05-13T22:20:32.841Z,11.25
2023-05-13T22:23:00.158Z,10.30
2023-05-13T22:25:27.114Z,9.50
2023-05-13T22:27:54.708Z,11.57
2023-05-13T22:30:21.906Z,10.25
2023-05-13T22:32:50.975Z,11.57
2023-05-13T22:35:18.029Z,10.53
2023-05-13T22:37:45.650Z,12.20
2023-05-13T22:40:13.142Z,11.30
2023-05-13T22:42:40.504Z,10.80
2023-05-13T22:45:07.912Z,11.32
2023-05-13T22:47:37.455Z,11.93
2023-05-13T22:50:05.156Z,12.40
2023-05-13T22:52:32.398Z,12.48
2023-05-13T22:54:59.362Z,14.27
2023-05-13T22:57:26.899Z,16.40
2023-05-13T22:59:53.796Z,15.47
2023-05-13T23:02:21.092Z,18.17
2023-05-13T23:04:48.033Z,16.17
2023-05-13T23:07:15.321Z,21.20
2023-05-13T23:09:42.281Z,20.05
2023-05-13T23:12:09.715Z,17.93
2023-05-13T23:14:36.622Z,19.30
2023-05-13T23:17:03.914Z,18.55
2023-05-13T23:19:31.104Z,20.58
2023-05-13T23:21:58.400Z,18.00
2023-05-13T23:24:25.443Z,18.33
2023-05-13T23:26:52.843Z,16.33
2023-05-13T23:29:19.795Z,15.05
2023-05-13T23:31:47.172Z,14.32
2023-05-13T23:34:14.105Z,18.42
2023-05-13T23:36:41.305Z,16.97
2023-05-13T23:39:08.685Z,15.27
2023-05-13T23:41:36.063Z,14.70
2023-05-13T23:44:03.092Z,17.02
2023-05-13T23:46:30.461Z,14.10
2023-05-13T23:48:57.519Z,11.80
2023-05-13T23:51:24.745Z,14.77
2023-05-13T23:53:52.098Z,12.32
2023-05-13T23:56:19.395Z,13.00
2023-05-13T23:58:46.325Z,14.48
